Time;durP1;ratioP1;P1;durP2;ratioP2;P2;SDS_P1;SDS_P2;PMS_P1;PMS_P2;Temp;Humidity;BMP_temperature;BMP_pressure;BME280_temperature;BME280_humidity;BME280_pressure;Samples;Min_cycle;Max_cycle;Signal;HPM_P1;HPM_P2
2021/04/28 00:02:06;;;;;;;9.18;6.10;;;;;;;;;;5034761;28;20026;-48
2021/04/28 00:04:32;;;;;;;9.60;6.00;;;;;;;;;;5035153;28;20021;-46
2021/04/28 00:07:02;;;;;;;10.82;6.45;;;;;;;;;;5034683;28;20033;-45
2021/04/28 00:09:29;;;;;;;11.10;6.63;;;;;;;;;;5034744;28;20473;-45
2021/04/28 00:11:55;;;;;;;9.27;5.97;;;;;;;;;;5034627;28;20037;-45
2021/04/28 00:14:21;;;;;;;10.20;6.18;;;;;;;;;;5034817;28;20700;-45
2021/04/28 00:16:47;;;;;;;14.13;7.38;;;;;;;;;;5034602;28;20057;-46
2021/04/28 00:19:14;;;;;;;11.75;6.80;;;;;;;;;;5034840;28;20040;-45
2021/04/28 00:21:40;;;;;;;11.70;7.22;;;;;;;;;;5034791;28;20071;-45
2021/04/28 00:24:06;;;;;;;9.70;6.35;;;;;;;;;;5034388;28;20083;-45
2021/04/28 00:26:32;;;;;;;15.40;7.35;;;;;;;;;;5034377;28;20050;-45
2021/04/28 00:28:58;;;;;;;9.95;6.18;;;;;;;;;;5034519;28;20029;-45
2021/04/28 00:31:24;;;;;;;12.05;7.00;;;;;;;;;;5034207;28;20128;-48
2021/04/28 00:33:51;;;;;;;11.57;6.95;;;;;;;;;;5034320;28;20052;-47
2021/04/28 00:36:17;;;;;;;10.73;6.75;;;;;;;;;;5033503;28;20025;-44
2021/04/28 00:38:43;;;;;;;12.18;6.82;;;;;;;;;;5034340;28;20095;-45
2021/04/28 00:41:10;;;;;;;10.15;6.30;;;;;;;;;;5034047;28;20057;-45
2021/04/28 00:43:37;;;;;;;8.00;5.50;;;;;;;;;;5034020;28;20025;-46
2021/04/28 00:46:04;;;;;;;9.30;5.97;;;;;;;;;;5034016;28;20120;-45
2021/04/28 00:48:30;;;;;;;12.10;6.40;;;;;;;;;;5034236;28;20029;-44
2021/04/28 00:50:56;;;;;;;10.60;6.15;;;;;;;;;;5033707;28;20034;-44
2021/04/28 00:53:23;;;;;;;10.75;6.60;;;;;;;;;;5033848;28;20057;-45
2021/04/28 00:55:49;;;;;;;10.60;6.60;;;;;;;;;;5033857;28;20362;-44
2021/04/28 00:58:16;;;;;;;9.32;6.05;;;;;;;;;;5033716;28;20037;-46
2021/04/28 01:00:43;;;;;;;10.15;6.25;;;;;;;;;;5033896;28;20112;-47
2021/04/28 01:03:09;;;;;;;9.20;6.32;;;;;;;;;;5033587;28;20112;-44
2021/04/28 01:05:36;;;;;;;10.63;6.75;;;;;;;;;;5033597;28;20029;-45
2021/04/28 01:08:02;;;;;;;11.50;6.38;;;;;;;;;;5033361;28;20485;-45
2021/04/28 01:10:30;;;;;;;9.95;6.50;;;;;;;;;;5033681;28;20037;-45
2021/04/28 01:12:57;;;;;;;10.10;6.75;;;;;;;;;;5033855;28;20030;-45
2021/04/28 01:15:27;;;;;;;10.32;6.20;;;;;;;;;;5033766;28;20512;-46
2021/04/28 01:17:53;;;;;;;10.40;6.50;;;;;;;;;;5033707;28;20029;-47
2021/04/28 01:20:20;;;;;;;10.93;6.10;;;;;;;;;;5033193;28;20022;-44
2021/04/28 01:22:48;;;;;;;12.20;7.30;;;;;;;;;;5033232;28;20026;-45
2021/04/28 01:25:17;;;;;;;12.95;7.70;;;;;;;;;;5033059;28;20445;-44
2021/04/28 01:27:44;;;;;;;11.43;6.70;;;;;;;;;;5033110;28;20130;-45
2021/04/28 01:30:13;;;;;;;10.38;6.57;;;;;;;;;;5033416;28;20091;-45
2021/04/28 01:32:45;;;;;;;12.55;6.97;;;;;;;;;;5033420;28;20132;-44
2021/04/28 01:35:13;;;;;;;9.73;6.03;;;;;;;;;;5033374;28;20033;-45
2021/04/28 01:37:39;;;;;;;9.00;5.50;;;;;;;;;;5033180;28;20472;-45
2021/04/28 01:40:06;;;;;;;10.73;6.22;;;;;;;;;;5032791;28;20052;-46
2021/04/28 01:42:32;;;;;;;10.13;6.45;;;;;;;;;;5032833;28;20120;-45
2021/04/28 01:44:58;;;;;;;10.27;6.57;;;;;;;;;;5033306;28;20052;-46
2021/04/28 01:47:25;;;;;;;9.50;6.20;;;;;;;;;;5032326;28;20418;-44
2021/04/28 01:49:51;;;;;;;14.68;6.57;;;;;;;;;;5032646;28;20053;-45
2021/04/28 01:52:19;;;;;;;10.05;6.43;;;;;;;;;;5033081;28;20069;-45
2021/04/28 01:54:46;;;;;;;11.93;7.45;;;;;;;;;;5032937;28;20420;-44
2021/04/28 01:57:13;;;;;;;10.50;6.50;;;;;;;;;;5033015;28;20029;-45
2021/04/28 01:59:39;;;;;;;12.13;6.57;;;;;;;;;;5033062;28;20412;-46
2021/04/28 02:02:05;;;;;;;11.80;6.45;;;;;;;;;;5032599;28;20038;-45
2021/04/28 02:04:32;;;;;;;10.23;5.75;;;;;;;;;;5032697;28;20121;-45
2021/04/28 02:06:58;;;;;;;11.27;6.50;;;;;;;;;;5033003;28;20037;-46
2021/04/28 02:09:24;;;;;;;12.80;7.10;;;;;;;;;;5032440;28;20109;-44
2021/04/28 02:11:51;;;;;;;11.75;6.88;;;;;;;;;;5032614;28;20361;-46
2021/04/28 02:14:20;;;;;;;12.50;6.70;;;;;;;;;;5032586;28;20030;-44
2021/04/28 02:16:47;;;;;;;11.77;7.20;;;;;;;;;;5032194;28;20034;-45
2021/04/28 02:19:14;;;;;;;11.23;6.45;;;;;;;;;;5032657;28;20037;-45
2021/04/28 02:21:44;;;;;;;12.98;6.90;;;;;;;;;;5032288;28;20025;-45
2021/04/28 02:24:13;;;;;;;12.57;6.40;;;;;;;;;;5295076;23;20049;-51
2021/04/28 02:26:39;;;;;;;11.40;6.93;;;;;;;;;;5032002;28;20411;-50
2021/04/28 02:29:05;;;;;;;13.10;7.05;;;;;;;;;;5031725;28;20022;-51
2021/04/28 02:31:31;;;;;;;13.27;7.30;;;;;;;;;;5031496;28;20037;-49
2021/04/28 02:33:57;;;;;;;11.30;6.72;;;;;;;;;;5031699;28;20030;-49
2021/04/28 02:36:25;;;;;;;10.73;6.75;;;;;;;;;;5031457;28;20017;-49
2021/04/28 02:38:53;;;;;;;10.77;7.05;;;;;;;;;;5031294;28;20037;-49
2021/04/28 02:41:21;;;;;;;13.13;7.38;;;;;;;;;;5031898;28;20029;-50
2021/04/28 02:43:48;;;;;;;14.38;8.40;;;;;;;;;;5031461;28;20033;-49
2021/04/28 02:46:15;;;;;;;12.63;6.13;;;;;;;;;;5031376;28;20099;-49
2021/04/28 02:48:43;;;;;;;12.57;7.07;;;;;;;;;;5031407;28;20533;-49
2021/04/28 02:51:09;;;;;;;13.20;6.82;;;;;;;;;;5031300;28;20045;-51
2021/04/28 02:53:36;;;;;;;12.05;6.70;;;;;;;;;;5031832;28;20028;-49
2021/04/28 02:56:02;;;;;;;13.10;6.10;;;;;;;;;;5031469;28;20192;-49
2021/04/28 02:58:29;;;;;;;10.10;6.68;;;;;;;;;;5033068;28;20448;-49
2021/04/28 03:00:56;;;;;;;10.35;6.45;;;;;;;;;;5035352;28;20064;-49
2021/04/28 03:03:22;;;;;;;10.07;6.60;;;;;;;;;;5035133;28;20033;-51
2021/04/28 03:05:53;;;;;;;12.93;6.43;;;;;;;;;;5035115;28;20034;-50
2021/04/28 03:08:19;;;;;;;10.25;6.60;;;;;;;;;;5035431;28;20022;-49
2021/04/28 03:10:47;;;;;;;21.88;9.13;;;;;;;;;;5034950;28;20033;-50
2021/04/28 03:13:13;;;;;;;23.85;11.13;;;;;;;;;;5034954;28;20052;-49
2021/04/28 03:15:40;;;;;;;20.80;10.13;;;;;;;;;;5035229;28;20032;-49
2021/04/28 03:18:06;;;;;;;11.75;7.25;;;;;;;;;;5035008;28;20108;-49
2021/04/28 03:20:33;;;;;;;10.95;6.93;;;;;;;;;;5035203;28;20377;-51
2021/04/28 03:22:59;;;;;;;9.80;6.20;;;;;;;;;;5034847;28;20029;-49
2021/04/28 03:25:25;;;;;;;12.65;6.60;;;;;;;;;;5034521;28;20551;-50
2021/04/28 03:27:51;;;;;;;12.63;6.32;;;;;;;;;;5035105;28;20033;-50
2021/04/28 03:30:17;;;;;;;11.13;6.35;;;;;;;;;;5035074;28;20428;-49
2021/04/28 03:32:43;;;;;;;11.70;6.47;;;;;;;;;;5034709;28;20061;-49
2021/04/28 03:35:10;;;;;;;10.50;6.85;;;;;;;;;;5034847;28;20029;-49
2021/04/28 03:37:37;;;;;;;13.35;6.95;;;;;;;;;;5034548;28;20527;-51
2021/04/28 03:40:04;;;;;;;16.52;8.50;;;;;;;;;;5034602;28;20033;-48
2021/04/28 03:42:30;;;;;;;23.65;11.98;;;;;;;;;;5034511;28;20126;-48
2021/04/28 03:44:56;;;;;;;36.13;15.88;;;;;;;;;;5034488;28;20558;-48
2021/04/28 03:47:22;;;;;;;28.90;13.57;;;;;;;;;;5034350;28;20033;-49
2021/04/28 03:49:48;;;;;;;13.13;7.75;;;;;;;;;;5034360;28;20099;-48
2021/04/28 03:52:14;;;;;;;14.20;6.57;;;;;;;;;;5034202;28;20476;-49
2021/04/28 03:54:41;;;;;;;12.38;6.35;;;;;;;;;;5034306;28;20496;-51
2021/04/28 03:57:07;;;;;;;10.10;6.95;;;;;;;;;;5034206;28;20109;-48
2021/04/28 03:59:34;;;;;;;11.80;6.65;;;;;;;;;;5034192;28;20060;-47
2021/04/28 04:02:00;;;;;;;16.92;8.55;;;;;;;;;;5034194;28;20481;-48
2021/04/28 04:04:26;;;;;;;29.60;12.05;;;;;;;;;;5034051;28;20026;-49
2021/04/28 04:06:53;;;;;;;28.52;12.43;;;;;;;;;;5034067;28;20464;-48
2021/04/28 04:09:19;;;;;;;29.65;12.40;;;;;;;;;;5033267;28;20381;-48
2021/04/28 04:11:45;;;;;;;23.27;10.07;;;;;;;;;;5033674;28;20492;-49
2021/04/28 04:14:11;;;;;;;19.95;8.32;;;;;;;;;;5034039;28;20028;-47
2021/04/28 04:16:37;;;;;;;11.27;6.35;;;;;;;;;;5033867;28;20032;-47
2021/04/28 04:19:03;;;;;;;9.07;5.55;;;;;;;;;;5033900;28;20464;-48
2021/04/28 04:21:29;;;;;;;11.63;6.22;;;;;;;;;;5034057;28;20365;-47
2021/04/28 04:23:56;;;;;;;13.05;6.78;;;;;;;;;;5029850;28;20044;-47
2021/04/28 04:26:22;;;;;;;12.18;7.07;;;;;;;;;;5013829;28;20481;-47
2021/04/28 04:28:48;;;;;;;9.90;6.18;;;;;;;;;;5013982;28;20032;-47
2021/04/28 04:31:14;;;;;;;8.88;6.15;;;;;;;;;;5013979;28;20035;-48
2021/04/28 04:33:40;;;;;;;10.52;6.35;;;;;;;;;;5014035;28;20030;-48
2021/04/28 04:36:06;;;;;;;9.57;6.53;;;;;;;;;;5013771;28;20117;-48
2021/04/28 04:38:32;;;;;;;13.05;6.47;;;;;;;;;;5013612;28;20424;-48
2021/04/28 04:40:58;;;;;;;14.07;6.95;;;;;;;;;;5013453;28;20018;-48
2021/04/28 04:43:24;;;;;;;10.43;6.18;;;;;;;;;;5013577;28;20433;-47
2021/04/28 04:45:50;;;;;;;11.15;6.40;;;;;;;;;;5013633;28;20032;-48
2021/04/28 04:48:17;;;;;;;9.88;6.47;;;;;;;;;;5013551;28;20146;-48
2021/04/28 04:50:43;;;;;;;11.43;6.32;;;;;;;;;;5012136;28;20057;-48
2021/04/28 04:53:09;;;;;;;12.68;6.32;;;;;;;;;;5014098;28;20389;-48
2021/04/28 04:55:36;;;;;;;11.88;6.85;;;;;;;;;;5014025;28;20045;-48
2021/04/28 04:58:02;;;;;;;15.95;7.05;;;;;;;;;;5013967;28;20040;-48
2021/04/28 05:00:28;;;;;;;14.02;8.52;;;;;;;;;;5013989;28;20026;-47
2021/04/28 05:02:54;;;;;;;10.93;7.50;;;;;;;;;;5013803;28;20029;-47
2021/04/28 05:05:21;;;;;;;11.98;6.93;;;;;;;;;;5013630;28;20030;-50
2021/04/28 05:07:47;;;;;;;11.73;6.90;;;;;;;;;;5013776;28;20033;-53
2021/04/28 05:10:14;;;;;;;9.75;6.13;;;;;;;;;;5010696;28;20125;-52
2021/04/28 05:12:45;;;;;;;11.32;6.45;;;;;;;;;;5006900;28;20048;-49
2021/04/28 05:15:11;;;;;;;14.25;7.53;;;;;;;;;;5011921;28;20558;-49
2021/04/28 05:17:37;;;;;;;11.98;6.88;;;;;;;;;;5011274;28;20494;-50
2021/04/28 05:20:04;;;;;;;20.05;6.97;;;;;;;;;;5013471;28;20029;-51
2021/04/28 05:22:30;;;;;;;14.45;7.28;;;;;;;;;;5013039;28;20069;-49
2021/04/28 05:24:56;;;;;;;11.80;6.30;;;;;;;;;;5013356;28;20108;-50
2021/04/28 05:27:25;;;;;;;14.70;7.03;;;;;;;;;;5013515;28;20038;-52
2021/04/28 05:29:52;;;;;;;11.45;6.50;;;;;;;;;;5013352;28;20033;-51
2021/04/28 05:32:18;;;;;;;14.73;6.88;;;;;;;;;;5013673;28;20029;-54
2021/04/28 05:34:45;;;;;;;16.60;7.13;;;;;;;;;;5013862;28;20172;-51
2021/04/28 05:37:18;;;;;;;14.80;6.90;;;;;;;;;;5013631;28;20041;-50
2021/04/28 05:39:44;;;;;;;;;;;;;;;;;;5029216;28;20487;-49
2021/04/28 05:42:10;;;;;;;14.43;7.65;;;;;;;;;;5032784;28;20000;-53
2021/04/28 05:44:36;;;;;;;14.73;7.00;;;;;;;;;;5032907;28;20025;-49
2021/04/28 05:47:02;;;;;;;12.13;6.32;;;;;;;;;;5032869;28;20476;-50
2021/04/28 05:49:28;;;;;;;14.10;7.30;;;;;;;;;;5013650;28;20409;-49
2021/04/28 05:51:54;;;;;;;12.23;6.65;;;;;;;;;;5030888;28;20037;-50
2021/04/28 05:54:21;;;;;;;11.63;5.88;;;;;;;;;;5045809;28;20029;-52
2021/04/28 05:56:47;;;;;;;13.40;7.43;;;;;;;;;;5052081;28;20472;-51
2021/04/28 05:59:13;;;;;;;11.18;6.10;;;;;;;;;;5050889;28;20111;-51
2021/04/28 06:01:39;;;;;;;11.00;5.80;;;;;;;;;;5051212;28;20100;-52
2021/04/28 06:04:05;;;;;;;10.43;5.25;;;;;;;;;;5051909;28;20025;-52
2021/04/28 06:06:31;;;;;;;9.85;5.18;;;;;;;;;;5022330;28;20404;-51
2021/04/28 06:08:58;;;;;;;10.23;5.05;;;;;;;;;;5043129;28;20021;-50
2021/04/28 06:11:24;;;;;;;13.35;5.10;;;;;;;;;;5051140;28;20561;-51
2021/04/28 06:13:50;;;;;;;8.18;4.43;;;;;;;;;;5051156;28;20021;-52
2021/04/28 06:16:16;;;;;;;8.45;4.43;;;;;;;;;;5051612;28;20029;-52
2021/04/28 06:18:42;;;;;;;7.28;4.53;;;;;;;;;;5049587;28;20027;-53
2021/04/28 06:21:09;;;;;;;8.77;5.60;;;;;;;;;;5051404;28;20017;-52
2021/04/28 06:23:35;;;;;;;10.68;5.05;;;;;;;;;;5050722;28;20037;-52
2021/04/28 06:26:02;;;;;;;9.40;4.50;;;;;;;;;;5049926;28;20337;-51
2021/04/28 06:28:28;;;;;;;8.75;4.75;;;;;;;;;;5051771;28;20032;-50
2021/04/28 06:30:54;;;;;;;7.32;4.40;;;;;;;;;;5049778;28;20033;-52
2021/04/28 06:33:20;;;;;;;7.55;3.80;;;;;;;;;;5050368;28;20018;-52
2021/04/28 06:35:46;;;;;;;8.20;3.95;;;;;;;;;;5051023;28;20037;-51
2021/04/28 06:38:13;;;;;;;10.15;5.43;;;;;;;;;;5050719;28;20119;-49
2021/04/28 06:40:39;;;;;;;17.65;6.10;;;;;;;;;;5051630;28;20017;-51
2021/04/28 06:43:06;;;;;;;9.82;4.93;;;;;;;;;;5048338;28;20494;-50
2021/04/28 06:45:34;;;;;;;8.00;4.72;;;;;;;;;;5025026;28;20033;-54
2021/04/28 06:48:00;;;;;;;10.60;4.82;;;;;;;;;;5023178;28;20020;-54
2021/04/28 06:50:26;;;;;;;7.07;3.95;;;;;;;;;;5020672;28;20030;-53
2021/04/28 06:52:53;;;;;;;8.73;4.82;;;;;;;;;;5019776;28;20104;-51
2021/04/28 06:55:19;;;;;;;8.95;4.85;;;;;;;;;;5031273;28;20037;-51
2021/04/28 06:57:52;;;;;;;8.23;4.40;;;;;;;;;;5030300;28;20034;-50
2021/04/28 07:00:19;;;;;;;7.97;4.20;;;;;;;;;;5030263;28;20334;-56
2021/04/28 07:02:45;;;;;;;12.38;6.97;;;;;;;;;;5031005;28;20040;-54
2021/04/28 07:05:11;;;;;;;9.68;4.38;;;;;;;;;;5030899;28;20033;-54
2021/04/28 07:07:37;;;;;;;8.35;4.72;;;;;;;;;;5030753;28;20030;-55
2021/04/28 07:10:05;;;;;;;9.70;4.50;;;;;;;;;;5030366;28;20430;-52
2021/04/28 07:12:32;;;;;;;9.25;4.22;;;;;;;;;;5019675;28;20045;-54
2021/04/28 07:14:58;;;;;;;8.98;4.07;;;;;;;;;;5010413;28;20512;-51
2021/04/28 07:17:24;;;;;;;7.80;4.50;;;;;;;;;;5009850;28;20026;-56
2021/04/28 07:19:50;;;;;;;9.93;4.18;;;;;;;;;;5010541;28;20478;-52
2021/04/28 07:22:16;;;;;;;9.15;4.55;;;;;;;;;;5010160;28;20034;-58
2021/04/28 07:24:42;;;;;;;11.27;4.55;;;;;;;;;;5019399;28;20397;-58
2021/04/28 07:27:08;;;;;;;7.78;4.00;;;;;;;;;;5029453;28;20497;-55
2021/04/28 07:29:34;;;;;;;14.07;4.43;;;;;;;;;;5030983;28;20030;-53
2021/04/28 07:32:02;;;;;;;7.75;4.28;;;;;;;;;;5031032;28;20041;-53
2021/04/28 07:34:29;;;;;;;13.20;4.70;;;;;;;;;;5031202;28;20030;-55
2021/04/28 07:36:55;;;;;;;7.40;4.43;;;;;;;;;;5031056;28;20022;-56
2021/04/28 07:39:21;;;;;;;7.35;3.80;;;;;;;;;;5029677;28;20377;-56
2021/04/28 07:41:47;;;;;;;6.90;3.80;;;;;;;;;;5030242;28;20025;-58
2021/04/28 07:44:14;;;;;;;6.25;3.75;;;;;;;;;;5032209;28;20101;-58
2021/04/28 07:46:40;;;;;;;8.45;4.05;;;;;;;;;;5034597;28;20429;-56
2021/04/28 07:49:07;;;;;;;6.40;3.63;;;;;;;;;;5032599;28;20117;-58
2021/04/28 07:51:33;;;;;;;6.35;3.50;;;;;;;;;;5031899;28;20041;-57
2021/04/28 07:54:00;;;;;;;6.75;3.72;;;;;;;;;;5033269;28;20087;-56
2021/04/28 07:56:26;;;;;;;7.20;3.70;;;;;;;;;;5033599;28;20028;-56
2021/04/28 07:58:52;;;;;;;7.10;3.65;;;;;;;;;;5033572;28;20143;-59
2021/04/28 08:01:19;;;;;;;9.40;3.72;;;;;;;;;;5033051;28;20028;-57
2021/04/28 08:03:45;;;;;;;8.02;4.13;;;;;;;;;;5015540;28;20535;-59
2021/04/28 08:06:11;;;;;;;7.53;3.83;;;;;;;;;;5034340;28;20528;-57
2021/04/28 08:08:38;;;;;;;6.90;3.97;;;;;;;;;;5034393;28;20050;-58
2021/04/28 08:11:04;;;;;;;7.10;4.57;;;;;;;;;;5033432;28;20033;-58
2021/04/28 08:13:31;;;;;;;7.15;3.70;;;;;;;;;;5014126;28;20037;-55
2021/04/28 08:15:57;;;;;;;9.13;3.65;;;;;;;;;;5018070;28;20116;-57
2021/04/28 08:18:24;;;;;;;8.35;3.88;;;;;;;;;;5034119;28;20037;-57
2021/04/28 08:20:50;;;;;;;8.20;3.67;;;;;;;;;;5034976;28;20017;-58
2021/04/28 08:23:16;;;;;;;6.82;3.50;;;;;;;;;;5034071;28;20025;-56
2021/04/28 08:25:43;;;;;;;8.32;3.05;;;;;;;;;;5033593;28;20049;-56
2021/04/28 08:28:09;;;;;;;6.03;3.00;;;;;;;;;;5016100;28;20037;-53
2021/04/28 08:30:36;;;;;;;8.23;3.80;;;;;;;;;;5033823;28;20074;-55
2021/04/28 08:33:02;;;;;;;8.35;4.00;;;;;;;;;;5033692;28;20036;-59
2021/04/28 08:35:28;;;;;;;5.90;3.70;;;;;;;;;;5033557;28;20048;-60
2021/04/28 08:37:54;;;;;;;4.75;2.50;;;;;;;;;;5033164;28;20025;-60
2021/04/28 08:40:21;;;;;;;6.15;2.53;;;;;;;;;;5033295;28;20452;-59
2021/04/28 08:42:47;;;;;;;8.38;2.97;;;;;;;;;;5030691;28;20026;-59
2021/04/28 08:45:14;;;;;;;5.35;2.92;;;;;;;;;;5031108;28;20087;-57
2021/04/28 08:47:43;;;;;;;6.38;3.13;;;;;;;;;;5033242;28;20029;-54
2021/04/28 08:50:10;;;;;;;9.07;3.28;;;;;;;;;;5015368;28;20064;-60
2021/04/28 08:52:37;;;;;;;6.65;3.70;;;;;;;;;;5032694;28;20389;-60
2021/04/28 08:55:04;;;;;;;5.40;3.00;;;;;;;;;;5014932;28;20029;-60
2021/04/28 08:57:30;;;;;;;11.25;2.97;;;;;;;;;;5032289;28;20397;-58
2021/04/28 08:59:56;;;;;;;4.40;2.50;;;;;;;;;;5032297;28;20050;-62
2021/04/28 09:02:26;;;;;;;6.28;3.22;;;;;;;;;;5032515;28;20052;-60
2021/04/28 09:05:21;;;;;;;5.60;3.15;;;;;;;;;;5032510;28;20028;-58
2021/04/28 09:07:48;;;;;;;5.78;3.15;;;;;;;;;;5011291;28;20088;-60
2021/04/28 09:10:18;;;;;;;7.93;3.05;;;;;;;;;;5032028;28;20061;-60
2021/04/28 09:12:55;;;;;;;8.75;3.25;;;;;;;;;;5031886;28;20037;-60
2021/04/28 09:15:34;;;;;;;8.05;3.60;;;;;;;;;;5031911;28;20100;-61
2021/04/28 09:18:00;;;;;;;6.88;3.35;;;;;;;;;;5030304;28;20436;-57
2021/04/28 09:20:36;;;;;;;9.20;5.05;;;;;;;;;;5032178;28;20026;-60
2021/04/28 09:23:05;;;;;;;6.43;3.45;;;;;;;;;;5032412;28;20030;-60
2021/04/28 09:25:35;;;;;;;5.93;2.63;;;;;;;;;;5014346;28;20116;-60
2021/04/28 09:28:19;;;;;;;7.90;2.67;;;;;;;;;;5032474;28;20044;-60
2021/04/28 09:30:45;;;;;;;8.13;3.53;;;;;;;;;;5032688;28;20041;-50
2021/04/28 09:33:12;;;;;;;5.78;2.88;;;;;;;;;;5032519;28;20501;-58
2021/04/28 09:35:38;;;;;;;5.20;2.80;;;;;;;;;;5032000;28;20128;-60
2021/04/28 09:38:04;;;;;;;5.63;2.45;;;;;;;;;;5031171;28;20061;-60
2021/04/28 09:40:51;;;;;;;5.43;2.15;;;;;;;;;;5031593;28;20060;-60
2021/04/28 09:43:17;;;;;;;5.60;2.78;;;;;;;;;;5031788;28;20065;-57
2021/04/28 09:45:45;;;;;;;5.75;2.63;;;;;;;;;;5031905;28;20025;-60
2021/04/28 09:48:12;;;;;;;4.72;2.22;;;;;;;;;;5031880;28;20076;-61
2021/04/28 09:50:38;;;;;;;6.20;2.50;;;;;;;;;;5031349;28;20496;-61
2021/04/28 09:53:04;;;;;;;6.28;2.55;;;;;;;;;;5032327;28;20681;-61
2021/04/28 09:55:31;;;;;;;8.07;2.70;;;;;;;;;;5032457;28;20021;-61
2021/04/28 09:57:57;;;;;;;4.93;2.28;;;;;;;;;;5032343;28;20034;-57
2021/04/28 10:00:28;;;;;;;5.32;2.40;;;;;;;;;;5032842;28;20021;-56
2021/04/28 10:03:01;;;;;;;5.13;2.53;;;;;;;;;;5032560;28;20021;-61
2021/04/28 10:05:31;;;;;;;4.95;2.30;;;;;;;;;;5032598;28;20068;-60
2021/04/28 10:08:13;;;;;;;6.00;2.33;;;;;;;;;;5031274;28;20063;-60
2021/04/28 10:10:39;;;;;;;4.80;2.50;;;;;;;;;;5031925;28;20025;-60
2021/04/28 10:13:06;;;;;;;5.35;2.28;;;;;;;;;;5032419;28;20026;-59
2021/04/28 10:15:32;;;;;;;5.28;2.50;;;;;;;;;;5032607;28;20022;-61
2021/04/28 10:18:03;;;;;;;4.25;2.20;;;;;;;;;;5032520;28;20029;-61
2021/04/28 10:20:33;;;;;;;4.90;2.40;;;;;;;;;;5032530;28;20469;-56
2021/04/28 10:23:03;;;;;;;4.95;2.20;;;;;;;;;;5032372;28;20061;-59
2021/04/28 10:25:29;;;;;;;4.70;2.45;;;;;;;;;;5032267;28;20092;-52
2021/04/28 10:27:56;;;;;;;5.13;2.30;;;;;;;;;;5032700;28;20108;-60
2021/04/28 10:30:22;;;;;;;5.72;2.80;;;;;;;;;;5032038;28;20623;-58
2021/04/28 10:32:49;;;;;;;6.05;2.28;;;;;;;;;;5032158;28;20029;-60
2021/04/28 10:35:20;;;;;;;5.47;2.10;;;;;;;;;;5014724;28;20057;-60
2021/04/28 10:37:51;;;;;;;5.15;2.33;;;;;;;;;;5032310;28;20037;-61
2021/04/28 10:40:21;;;;;;;10.38;2.67;;;;;;;;;;5032437;28;20037;-56
2021/04/28 10:42:48;;;;;;;5.80;2.58;;;;;;;;;;5030261;28;20040;-60
2021/04/28 10:45:23;;;;;;;7.57;2.63;;;;;;;;;;5031613;28;20033;-51
2021/04/28 10:47:53;;;;;;;5.90;3.03;;;;;;;;;;5032213;28;20030;-61
2021/04/28 10:50:24;;;;;;;6.85;2.28;;;;;;;;;;5032400;28;20033;-60
2021/04/28 10:52:52;;;;;;;6.55;2.50;;;;;;;;;;5033422;28;20344;-61
2021/04/28 10:55:37;;;;;;;6.45;2.65;;;;;;;;;;5032346;28;20065;-62
2021/04/28 10:58:04;;;;;;;4.50;2.35;;;;;;;;;;5032088;28;20029;-58
2021/04/28 11:00:30;;;;;;;4.38;2.50;;;;;;;;;;5032026;28;20100;-61
2021/04/28 11:02:56;;;;;;;3.63;2.15;;;;;;;;;;5031356;28;20115;-57
2021/04/28 11:05:26;;;;;;;5.63;2.72;;;;;;;;;;5029618;28;20029;-59
2021/04/28 11:07:53;;;;;;;8.48;2.70;;;;;;;;;;5031683;28;20021;-59
2021/04/28 11:10:33;;;;;;;5.35;1.90;;;;;;;;;;5032262;28;20190;-58
2021/04/28 11:13:18;;;;;;;4.80;2.35;;;;;;;;;;5032119;28;20030;-59
2021/04/28 11:15:45;;;;;;;4.75;2.33;;;;;;;;;;5031990;28;20025;-51
2021/04/28 11:18:26;;;;;;;4.82;2.30;;;;;;;;;;5032019;28;20025;-60
2021/04/28 11:21:12;;;;;;;6.88;2.38;;;;;;;;;;5035796;28;20377;-59
2021/04/28 11:23:39;;;;;;;5.68;2.50;;;;;;;;;;5035501;28;20467;-47
2021/04/28 11:26:33;;;;;;;4.20;2.22;;;;;;;;;;5035742;28;20104;-60
2021/04/28 11:29:00;;;;;;;4.82;2.10;;;;;;;;;;5015977;28;20041;-59
2021/04/28 11:31:38;;;;;;;6.70;2.17;;;;;;;;;;5035344;28;20030;-57
2021/04/28 11:34:23;;;;;;;6.43;2.47;;;;;;;;;;5035408;28;20037;-59
2021/04/28 11:36:59;;;;;;;6.95;2.60;;;;;;;;;;5035759;28;20029;-49
2021/04/28 11:39:35;;;;;;;5.13;2.40;;;;;;;;;;5017875;28;20025;-60
2021/04/28 11:42:10;;;;;;;6.13;2.80;;;;;;;;;;5035367;28;20029;-56
2021/04/28 11:44:57;;;;;;;6.13;2.70;;;;;;;;;;5035364;28;20025;-61
2021/04/28 11:47:25;;;;;;;5.70;2.40;;;;;;;;;;5035283;28;20025;-53
2021/04/28 11:49:52;;;;;;;6.53;2.50;;;;;;;;;;5035521;28;20374;-61
2021/04/28 11:52:19;;;;;;;4.65;2.10;;;;;;;;;;5035307;28;20031;-60
2021/04/28 11:54:46;;;;;;;6.25;2.63;;;;;;;;;;5035243;28;20029;-59
2021/04/28 11:57:12;;;;;;;8.18;2.83;;;;;;;;;;5035169;28;20025;-61
2021/04/28 11:59:39;;;;;;;4.60;2.40;;;;;;;;;;5035531;28;20033;-59
2021/04/28 12:02:09;;;;;;;6.90;2.70;;;;;;;;;;5035061;28;20021;-60
2021/04/28 12:04:41;;;;;;;4.93;2.20;;;;;;;;;;5035087;28;20025;-61
2021/04/28 12:07:09;;;;;;;6.00;2.28;;;;;;;;;;5035220;28;20104;-60
2021/04/28 12:09:41;;;;;;;4.72;2.40;;;;;;;;;;5034945;28;20033;-57
2021/04/28 12:12:26;;;;;;;6.13;2.50;;;;;;;;;;5034785;28;20461;-55
2021/04/28 12:15:04;;;;;;;7.05;2.53;;;;;;;;;;5034929;28;20060;-59
2021/04/28 12:17:31;;;;;;;5.38;2.33;;;;;;;;;;5034585;28;20030;-59
2021/04/28 12:19:58;;;;;;;7.35;2.50;;;;;;;;;;5034554;28;20068;-60
2021/04/28 12:22:24;;;;;;;6.38;2.20;;;;;;;;;;5034631;28;20193;-60
2021/04/28 12:24:54;;;;;;;9.02;2.60;;;;;;;;;;5034545;28;20069;-45
2021/04/28 12:27:22;;;;;;;8.05;2.40;;;;;;;;;;5034568;28;20045;-58
2021/04/28 12:29:51;;;;;;;7.07;2.50;;;;;;;;;;5034104;28;20028;-49
2021/04/28 12:32:19;;;;;;;6.30;2.53;;;;;;;;;;5015850;28;20083;-59
2021/04/28 12:34:46;;;;;;;7.85;2.67;;;;;;;;;;5034537;28;20030;-62
2021/04/28 12:37:16;;;;;;;4.90;2.15;;;;;;;;;;5034248;28;20025;-60
2021/04/28 12:39:53;;;;;;;6.90;2.67;;;;;;;;;;5034193;28;20029;-58
2021/04/28 12:42:30;;;;;;;26.67;3.45;;;;;;;;;;5034358;28;20096;-50
2021/04/28 12:44:56;;;;;;;11.43;2.58;;;;;;;;;;5034056;28;20032;-49
2021/04/28 12:47:23;;;;;;;7.88;2.20;;;;;;;;;;5034138;28;20039;-59
2021/04/28 12:49:53;;;;;;;6.53;2.83;;;;;;;;;;5034192;28;20021;-47
2021/04/28 12:52:19;;;;;;;8.73;2.92;;;;;;;;;;5034297;28;20037;-53
2021/04/28 12:54:46;;;;;;;8.07;2.60;;;;;;;;;;5033915;28;20040;-56
2021/04/28 12:57:19;;;;;;;7.43;2.75;;;;;;;;;;5034152;28;20029;-56
2021/04/28 12:59:45;;;;;;;8.70;3.00;;;;;;;;;;5033638;28;20034;-55
2021/04/28 13:02:17;;;;;;;15.23;2.97;;;;;;;;;;5033540;28;20026;-55
2021/04/28 13:04:50;;;;;;;6.35;2.35;;;;;;;;;;5033979;28;20033;-47
2021/04/28 13:07:24;;;;;;;12.60;2.97;;;;;;;;;;5033710;28;20358;-53
2021/04/28 13:09:50;;;;;;;6.47;2.90;;;;;;;;;;5034003;28;20017;-59
2021/04/28 13:12:35;;;;;;;10.20;3.05;;;;;;;;;;5033809;28;20405;-54
2021/04/28 13:15:03;;;;;;;13.00;3.22;;;;;;;;;;5033803;28;20459;-57
2021/04/28 13:17:49;;;;;;;6.72;2.60;;;;;;;;;;5033152;28;20064;-49
2021/04/28 13:20:16;;;;;;;11.13;3.40;;;;;;;;;;5019813;28;20072;-55
2021/04/28 13:22:42;;;;;;;8.55;2.80;;;;;;;;;;5033720;28;20024;-57
2021/04/28 13:25:09;;;;;;;6.25;2.60;;;;;;;;;;5033241;28;20077;-53
2021/04/28 13:27:35;;;;;;;11.18;2.72;;;;;;;;;;5033120;28;20030;-51
2021/04/28 13:30:12;;;;;;;10.80;2.75;;;;;;;;;;5033537;28;20405;-52
2021/04/28 13:32:44;;;;;;;6.65;2.40;;;;;;;;;;5033168;28;20117;-58
2021/04/28 13:35:27;;;;;;;7.25;2.55;;;;;;;;;;5033099;28;20444;-58
2021/04/28 13:37:57;;;;;;;17.13;3.45;;;;;;;;;;5032994;28;20018;-60
2021/04/28 13:40:24;;;;;;;9.65;2.95;;;;;;;;;;5033213;28;20029;-58
2021/04/28 13:42:54;;;;;;;6.75;2.95;;;;;;;;;;5032732;28;20036;-58
2021/04/28 13:45:21;;;;;;;9.18;3.22;;;;;;;;;;5033039;28;20108;-58
2021/04/28 13:47:47;;;;;;;8.00;3.38;;;;;;;;;;5032553;28;20539;-60
2021/04/28 13:50:13;;;;;;;8.27;3.50;;;;;;;;;;5032793;28;20159;-57
2021/04/28 13:52:40;;;;;;;9.95;4.03;;;;;;;;;;5032686;28;20108;-59
2021/04/28 13:55:07;;;;;;;7.80;4.32;;;;;;;;;;5032373;28;20033;-60
2021/04/28 13:57:34;;;;;;;12.63;5.43;;;;;;;;;;5032774;28;20025;-56
2021/04/28 14:00:00;;;;;;;9.07;3.45;;;;;;;;;;5032546;28;20025;-56
2021/04/28 14:02:28;;;;;;;8.43;3.50;;;;;;;;;;5032609;28;20037;-50
2021/04/28 14:04:55;;;;;;;7.82;3.60;;;;;;;;;;5032967;28;20026;-53
2021/04/28 14:07:21;;;;;;;9.70;4.10;;;;;;;;;;5032496;28;20029;-57
2021/04/28 14:09:48;;;;;;;9.35;3.85;;;;;;;;;;5032697;28;20120;-56
2021/04/28 14:12:15;;;;;;;4.97;2.72;;;;;;;;;;5032533;28;20057;-56
2021/04/28 14:14:41;;;;;;;11.23;3.90;;;;;;;;;;5032397;28;20112;-57
2021/04/28 14:17:07;;;;;;;9.82;4.10;;;;;;;;;;5032245;28;20113;-59
2021/04/28 14:19:34;;;;;;;8.30;4.15;;;;;;;;;;5032606;28;20353;-56
2021/04/28 14:22:01;;;;;;;7.75;3.25;;;;;;;;;;5014532;28;20357;-57
2021/04/28 14:24:27;;;;;;;14.30;3.85;;;;;;;;;;5032099;28;20045;-57
2021/04/28 14:26:54;;;;;;;9.20;4.13;;;;;;;;;;5032367;28;20044;-54
2021/04/28 14:29:20;;;;;;;10.88;3.90;;;;;;;;;;5032023;28;20059;-56
2021/04/28 14:31:46;;;;;;;10.00;4.50;;;;;;;;;;5031912;28;20041;-54
2021/04/28 14:34:12;;;;;;;8.20;3.90;;;;;;;;;;5032079;28;20036;-58
2021/04/28 14:36:40;;;;;;;14.00;4.45;;;;;;;;;;5032131;28;20032;-58
2021/04/28 14:39:07;;;;;;;11.18;4.30;;;;;;;;;;5032048;28;20026;-58
2021/04/28 14:41:33;;;;;;;8.98;4.40;;;;;;;;;;5032043;28;20029;-57
2021/04/28 14:43:59;;;;;;;9.45;5.15;;;;;;;;;;5031956;28;20040;-58